Weather observations for the past three days for
Columbus/West Point/Starkville, Golden Triangle Regional Airport
Metric (Imperial)
Date Time (cdt) Wind (kph) Vis. (km) Weather Sky Cond. Temperature (ºC) Relative Humidity Wind Chill (°C) Heat Index (°C) Pressure Precipitation (cm)
Air Dwpt 6 hour altimeter (cm) sea level (mb) 1 hr 3 hr 6 hr
Max. Min.
05 04:56 S 13 16.09 Fair CLR 13.3 11.1 87% 75.95 1012.5
05 03:56 S 13 16.09 Fair CLR 13.3 11.1 87% 75.97 1012.7
05 02:56 S 13 16.09 Fair CLR 13.3 10.6 84% 75.97 1012.9
05 01:56 S 17 16.09 Fair CLR 16.1 11.1 72% 75.97 1013.1
05 00:56 S 11 16.09 Fair CLR 15 11.7 23.3 13.9 81% 76 1013.3
04 23:56 S 7 16.09 Fair CLR 16.1 11.7 75% 76.02 1013.4
04 22:56 S 13 16.09 Fair CLR 15 11.1 78% 75.97 1013.0
04 21:56 S 11 16.09 Fair CLR 16.7 11.7 73% 76 1013.0
04 20:56 S 11 16.09 Fair CLR 18.9 11.7 63% 75.95 1012.6
04 19:56 S 7 16.09 Fair CLR 18.9 11.7 63% 75.92 1012.3
04 18:56 S 13 16.09 Fair CLR 23.3 11.7 26.7 23.3 48% 75.92 1012.1
04 17:56 S 22 G 28 16.09 Fair CLR 25 11.1 42% 26 75.95 1012.5
04 16:56 S 13 16.09 Fair CLR 26.1 11.1 39% 26 75.97 1012.9
04 15:56 SW 15 16.09 Fair CLR 26.7 10 35% 26 76.02 1013.6
04 14:56 S 22 G 37 16.09 Fair CLR 26.1 11.1 39% 26 76.07 1014.3
04 13:56 S 24 16.09 A Few Clouds FEW070 26.1 11.1 39% 26 76.12 1014.9
04 12:56 S 17 16.09 Fair CLR 25.6 10.6 25.6 11.1 39% 26 76.15 1015.3
04 11:56 SW 17 16.09 Fair CLR 25 11.1 42% 26 76.23 1016.2
04 10:56 W 17 16.09 Fair CLR 23.3 11.1 46% 76.28 1017.0
04 09:56 Vrbl 11 16.09 Fair CLR 21.7 11.1 51% 76.3 1017.2
04 08:56 SW 9 16.09 Fair CLR 19.4 11.7 61% 76.3 1017.3
04 07:56 S 7 16.09 Fair CLR 14.4 11.1 81% 76.3 1017.5
04 06:56 Calm 16.09 Fair CLR 11.1 9.4 13.3 8.9 89% 76.3 1017.3
04 05:56 S 7 16.09 Fair CLR 10.6 8.9 89% 76.25 1016.7
04 04:56 S 7 16.09 Fair CLR 9.4 8.3 93% 9 76.25 1016.7
04 03:56 S 9 16.09 Fair CLR 10 8.9 93% 9 76.25 1016.7
04 02:56 S 9 16.09 Fair CLR 9.4 8.9 97% 8 76.25 1016.7
04 00:56 S 7 16.09 Fair CLR 12.2 9.4 22.2 11.1 83% 76.35 1018.2
03 23:56 S 11 16.09 Fair CLR 12.8 8.9 77% 76.38 1018.3
03 22:56 S 9 16.09 Fair CLR 12.2 10 87% 76.4 1018.6
03 21:56 S 6 16.09 Fair CLR 14.4 10.6 78% 76.4 1018.8
03 20:56 Calm 16.09 Fair CLR 15.6 10.6 72% 76.35 1018.0
03 19:56 Calm 16.09 Fair CLR 18.9 10 56% 76.33 1017.7
03 18:56 Calm 16.09 A Few Clouds FEW001 22.2 6.7 23.9 20.6 37% 76.3 1017.4
03 17:56 Vrbl 6 16.09 Fair CLR 23.3 6.7 34% 76.33 1017.8
03 16:56 Calm 16.09 Fair CLR 23.9 6.7 33% 25 76.35 1018.1
03 15:56 SW 9 16.09 Fair CLR 23.3 7.2 36% 76.43 1019.0
03 14:56 SW 13 16.09 Fair CLR 22.8 6.7 35% 76.53 1020.3
03 12:56 Calm 16.09 Fair CLR 20.6 5 20.6 7.2 36% 76.66 1022.2
03 11:56 Calm 16.09 Fair CLR 20.6 6.1 39% 76.73 1023.0
03 10:56 Vrbl 6 16.09 Fair CLR 18.9 6.1 43% 76.76 1023.6
03 09:56 Calm 16.09 Fair CLR 16.7 6.1 50% 76.78 1023.6
03 08:56 E 7 16.09 Fair CLR 13.9 8.9 72% 76.76 1023.3
03 07:56 Calm 16.09 Fair CLR 11.7 8.9 83% 76.73 1023.1
03 06:56 Calm 16.09 Fair CLR 7.2 7.2 10 6.7 100% 76.71 1022.8
03 05:56 Calm 16.09 Fair CLR 7.2 6.7 97% 76.66 1022.0
03 04:56 Calm 16.09 Fair CLR 7.2 7.2 100% 76.61 1021.5
03 03:56 Calm 16.09 Fair CLR 7.8 7.2 96% 76.58 1021.2
03 02:56 Calm 16.09 Fair CLR 8.3 7.2 93% 76.56 1020.6
03 01:56 N 7 16.09 Fair CLR 8.9 7.2 89% 8 76.53 1020.5
03 00:56 N 13 16.09 Fair CLR 9.4 7.2 19.4 9.4 86% 8 76.5 1020.3 0.03
02 23:56 Vrbl 7 14.48 Fair CLR 11.7 7.2 74% 76.48 1019.6
02 22:56 Calm 16.09 Fair CLR 12.2 7.8 75% 76.43 1019.2 0.03
02 21:56 Calm 16.09 Fair CLR 13.3 8.3 72% 76.43 1019.1
02 20:56 Calm 16.09 Fair CLR 15 7.2 60% 76.38 1018.4
02 19:56 NW 6 16.09 Fair CLR 17.2 5.6 47% 76.33 1017.8
02 18:56 NW 13 16.09 Fair CLR 19.4 3.9 22.2 19.4 36% 76.28 1017.1 0.05
02 17:56 N 17 16.09 A Few Clouds FEW080 21.1 5 35% 76.28 1016.9 0.03
02 16:56 NW 17 16.09 Fair CLR 21.7 5 34% 76.28 1016.9
02 15:56 N 19 G 33 16.09 Partly Cloudy SCT080 20.6 3.9 33% 76.28 1017.1 0.03
02 14:56 N 22 16.09 Fair CLR 21.7 4.4 32% 76.33 1017.6 0.03
02 13:56 N 24 G 33 16.09 Fair CLR 21.1 4.4 34% 76.33 1017.7
02 12:56 N 22 G 31 16.09 Fair CLR 21.1 5 21.1 11.7 35% 76.35 1018.1 0.05
02 11:56 N 22 16.09 Fair CLR 20.6 5.6 38% 76.4 1018.7 0.03
02 10:56 N 20 16.09 Fair CLR 18.9 4.4 39% 76.43 1018.9
02 09:56 NE 22 16.09 Fair CLR 17.2 5.6 47% 76.4 1018.5 0.03
02 08:56 N 19 16.09 Fair CLR 14.4 6.1 58% 76.35 1018.0
02 07:56 N 17 16.09 Fair CLR 13.3 5.6 60% 76.3 1017.4 0.03
02 06:56 N 11 16.09 Fair CLR 11.7 6.1 13.9 11.1 69% 76.25 1016.6 0.03
02 05:56 N 7 16.09 A Few Clouds FEW060 11.1 6.1 72% 76.2 1015.9
Date Time (cdt) Wind (kph) Vis. (km) Weather Sky Cond. Air Dwpt Max. Min. Relative Humidity Wind Chill (°C) Heat Index (°C) altimeter (cm) sea level (mb) 1 hr 3 hr 6 hr
6 hour
Temperature (ºC) Pressure Precipitation (cm)